Time;durP1;ratioP1;P1;durP2;ratioP2;P2;SDS_P1;SDS_P2;PMS_P1;PMS_P2;Temp;Humidity;BMP_temperature;BMP_pressure;BME280_temperature;BME280_humidity;BME280_pressure;Samples;Min_cycle;Max_cycle;Signal;HPM_P1;HPM_P2
2022/09/12 00:02:02;;;;;;;0.63;0.10;;;24.50;50.90;;;;;;5050095;28;20084;-59
2022/09/12 00:04:30;;;;;;;0.10;0.10;;;24.50;50.90;;;;;;5050374;28;20040;-59
2022/09/12 00:06:57;;;;;;;0.20;0.10;;;24.50;50.90;;;;;;5032195;28;20613;-59
2022/09/12 00:09:24;;;;;;;0.20;0.10;;;24.50;50.90;;;;;;5050445;28;20075;-59
2022/09/12 00:11:51;;;;;;;0.10;0.10;;;24.50;50.90;;;;;;5050110;28;20045;-59
2022/09/12 00:14:18;;;;;;;0.20;0.17;;;24.40;50.80;;;;;;5049718;28;20461;-59
2022/09/12 00:16:46;;;;;;;0.20;0.10;;;24.40;50.80;;;;;;5049793;28;20055;-59
2022/09/12 00:19:13;;;;;;;0.08;0.08;;;24.40;50.80;;;;;;5049816;28;20136;-59
2022/09/12 00:21:40;;;;;;;0.30;0.20;;;24.40;50.90;;;;;;5027631;28;20053;-59
2022/09/12 00:24:09;;;;;;;0.38;0.10;;;24.40;50.80;;;;;;5050491;28;20410;-59
2022/09/12 00:26:36;;;;;;;0.10;0.10;;;24.40;50.90;;;;;;5049715;28;20345;-59
2022/09/12 00:29:03;;;;;;;0.38;0.30;;;24.40;50.90;;;;;;5049479;28;20045;-62
2022/09/12 00:31:31;;;;;;;0.08;0.08;;;24.50;51.00;;;;;;5049103;28;20325;-59
2022/09/12 00:34:02;;;;;;;0.22;0.20;;;24.40;50.90;;;;;;5049923;28;20053;-59
2022/09/12 00:36:29;;;;;;;0.13;0.13;;;24.40;50.90;;;;;;5049720;28;20045;-59
2022/09/12 00:38:57;;;;;;;0.10;0.10;;;24.40;50.90;;;;;;5049742;28;20079;-59
2022/09/12 00:41:31;;;;;;;0.30;0.20;;;24.40;50.90;;;;;;5031914;28;20049;-59
2022/09/12 00:44:01;;;;;;;0.30;0.20;;;24.40;50.90;;;;;;5032310;28;20132;-59
2022/09/12 00:46:48;;;;;;;0.30;0.10;;;24.40;50.90;;;;;;5031825;28;20210;-59
2022/09/12 00:49:27;;;;;;;0.30;0.13;;;24.50;51.00;;;;;;5032190;28;20482;-59
2022/09/12 00:52:09;;;;;;;0.30;0.30;;;24.50;51.00;;;;;;5049665;28;20063;-59
2022/09/12 00:54:54;;;;;;;0.20;0.20;;;24.50;50.90;;;;;;5046491;28;20513;-59
2022/09/12 00:57:26;;;;;;;0.22;0.13;;;24.50;50.90;;;;;;5031304;28;20041;-59
2022/09/12 01:00:00;;;;;;;0.08;0.08;;;24.50;50.90;;;;;;5049234;28;20052;-59
2022/09/12 01:02:27;;;;;;;0.10;0.10;;;24.40;50.90;;;;;;5030642;28;20049;-59
2022/09/12 01:04:54;;;;;;;0.70;0.10;;;24.50;50.90;;;;;;5049429;28;20051;-59
2022/09/12 01:07:22;;;;;;;0.17;0.05;;;24.50;50.90;;;;;;5049249;28;20064;-59
2022/09/12 01:09:50;;;;;;;0.47;0.10;;;24.40;50.90;;;;;;5049318;28;20405;-59
2022/09/12 01:12:17;;;;;;;0.10;0.10;;;24.50;51.00;;;;;;5049315;28;20045;-59
2022/09/12 01:14:44;;;;;;;0.95;0.10;;;24.40;50.90;;;;;;5048380;28;20079;-59
2022/09/12 01:17:13;;;;;;;0.20;0.00;;;24.50;50.90;;;;;;5031827;28;20049;-61
2022/09/12 01:20:20;;;;;;;0.20;0.20;;;24.40;50.90;;;;;;5048695;28;20528;-59
2022/09/12 01:23:17;;;;;;;0.20;0.10;;;24.50;50.90;;;;;;5049076;28;20477;-59
2022/09/12 01:26:10;;;;;;;0.73;0.08;;;24.40;50.90;;;;;;5043554;28;20040;-59
2022/09/12 01:29:17;;;;;;;0.28;0.20;;;24.50;50.90;;;;;;5029233;28;20056;-59
2022/09/12 01:32:00;;;;;;;0.82;0.10;;;24.40;50.90;;;;;;5028291;28;20478;-59
2022/09/12 01:34:54;;;;;;;0.10;0.10;;;24.40;50.90;;;;;;5029079;28;20415;-59
2022/09/12 01:37:43;;;;;;;0.22;0.20;;;24.40;50.90;;;;;;5014150;28;20076;-59
2022/09/12 01:40:33;;;;;;;0.10;0.10;;;24.40;50.90;;;;;;5028257;28;20270;-59
2022/09/12 01:43:30;;;;;;;0.20;0.10;;;24.40;50.90;;;;;;5028492;28;20053;-59
2022/09/12 01:46:06;;;;;;;0.20;0.10;;;24.40;50.90;;;;;;5027851;28;20037;-59
2022/09/12 01:48:46;;;;;;;0.13;0.13;;;24.40;50.90;;;;;;5028800;28;20486;-59
2022/09/12 01:51:25;;;;;;;0.10;0.10;;;24.40;50.90;;;;;;5027753;28;20045;-59
2022/09/12 01:54:02;;;;;;;0.10;0.10;;;24.40;50.90;;;;;;5028627;28;20046;-59
2022/09/12 01:56:34;;;;;;;0.10;0.10;;;24.40;50.90;;;;;;5026628;28;20053;-59
2022/09/12 01:59:07;;;;;;;0.10;0.10;;;24.40;50.90;;;;;;5025533;28;20045;-59
2022/09/12 02:01:40;;;;;;;0.10;0.10;;;24.40;50.90;;;;;;5028206;28;20049;-59
2022/09/12 02:04:23;;;;;;;0.35;0.13;;;24.40;50.90;;;;;;5039715;28;20049;-59
2022/09/12 02:07:05;;;;;;;0.00;0.00;;;24.40;50.90;;;;;;5030782;28;20049;-59
2022/09/12 02:09:43;;;;;;;0.03;0.03;;;24.40;50.90;;;;;;5047870;28;20057;-60
2022/09/12 02:12:14;;;;;;;0.10;0.10;;;24.40;50.90;;;;;;5047886;28;20140;-59
2022/09/12 02:14:50;;;;;;;0.45;0.17;;;24.40;50.90;;;;;;5047842;28;20143;-59
2022/09/12 02:17:23;;;;;;;0.10;0.10;;;24.40;50.90;;;;;;5048095;28;20052;-59
2022/09/12 02:20:16;;;;;;;0.47;0.20;;;24.40;50.90;;;;;;5048437;28;20053;-59
2022/09/12 02:23:09;;;;;;;0.00;0.00;;;24.40;50.90;;;;;;5036000;28;20056;-59
2022/09/12 02:25:41;;;;;;;0.10;0.10;;;24.40;50.90;;;;;;5048070;28;20132;-59
2022/09/12 02:28:17;;;;;;;0.20;0.20;;;24.40;50.90;;;;;;5046563;28;20056;-59
2022/09/12 02:30:58;;;;;;;0.40;0.10;;;24.40;51.50;;;;;;5046739;28;20772;-59
2022/09/12 02:33:45;;;;;;;0.20;0.20;;;24.40;51.10;;;;;;5047699;28;20418;-59
2022/09/12 02:36:23;;;;;;;0.05;0.05;;;24.40;51.00;;;;;;5047374;28;20056;-59
2022/09/12 02:38:50;;;;;;;0.20;0.10;;;24.40;51.00;;;;;;5047549;28;20056;-59
2022/09/12 02:41:20;;;;;;;0.20;0.20;;;24.30;50.90;;;;;;5047793;28;20052;-59
2022/09/12 02:43:49;;;;;;;0.10;0.10;;;24.40;51.00;;;;;;5047777;28;20095;-59
2022/09/12 02:46:22;;;;;;;;;;;24.40;51.00;;;;;;5048007;28;20148;-59
2022/09/12 02:48:49;;;;;;;0.10;0.10;;;24.40;51.50;;;;;;5048202;28;19949;-59
2022/09/12 02:51:17;;;;;;;0.10;0.10;;;24.40;51.00;;;;;;5046847;28;20482;-59
2022/09/12 02:53:50;;;;;;;0.00;0.00;;;24.40;51.00;;;;;;5047849;28;20074;-59
2022/09/12 02:56:26;;;;;;;0.10;0.10;;;24.40;50.90;;;;;;5032525;28;20064;-59
2022/09/12 02:58:59;;;;;;;0.15;0.10;;;24.40;51.50;;;;;;5051698;28;20493;-59
2022/09/12 03:01:49;;;;;;;0.08;0.08;;;24.40;51.00;;;;;;5047149;28;20049;-59
2022/09/12 03:04:33;;;;;;;;;;;24.40;50.90;;;;;;5051501;28;20041;-59
2022/09/12 03:07:41;;;;;;;0.20;0.10;;;24.40;50.90;;;;;;5051570;28;19921;-59
2022/09/12 03:10:38;;;;;;;0.82;0.10;;;24.40;50.90;;;;;;5051027;28;20045;-59
2022/09/12 03:13:23;;;;;;;0.20;0.10;;;24.40;50.90;;;;;;5051096;28;20056;-59
2022/09/12 03:16:15;;;;;;;0.03;0.03;;;24.40;50.90;;;;;;5050757;28;20049;-59
2022/09/12 03:19:09;;;;;;;0.20;0.10;;;24.40;50.90;;;;;;5051713;28;20693;-59
2022/09/12 03:22:00;;;;;;;0.20;0.20;;;24.40;50.90;;;;;;5036373;28;20076;-59
2022/09/12 03:24:49;;;;;;;0.10;0.10;;;24.40;50.90;;;;;;5033699;28;20045;-59
2022/09/12 03:27:32;;;;;;;0.10;0.00;;;24.40;50.90;;;;;;5050863;28;20120;-59
2022/09/12 03:29:59;;;;;;;0.10;0.10;;;24.40;50.90;;;;;;5050836;28;20056;-59
2022/09/12 03:32:42;;;;;;;1.27;0.20;;;24.40;50.90;;;;;;5030389;28;20049;-59
2022/09/12 03:35:10;;;;;;;0.15;0.15;;;24.40;50.90;;;;;;5048568;28;20504;-59
2022/09/12 03:37:38;;;;;;;0.20;0.10;;;24.40;50.90;;;;;;5051057;28;20395;-59
2022/09/12 03:40:06;;;;;;;0.32;0.25;;;24.40;50.90;;;;;;5049361;28;20053;-59
2022/09/12 03:42:33;;;;;;;0.10;0.10;;;24.30;50.90;;;;;;5051380;28;20049;-59
2022/09/12 03:45:01;;;;;;;0.20;0.20;;;24.30;50.90;;;;;;5049927;28;20056;-59
2022/09/12 03:47:28;;;;;;;0.10;0.10;;;24.30;50.90;;;;;;5033017;28;20137;-60
2022/09/12 03:49:55;;;;;;;1.20;0.22;;;24.30;50.90;;;;;;5049753;28;20217;-59
2022/09/12 03:52:22;;;;;;;0.35;0.13;;;24.30;50.90;;;;;;5050148;28;20060;-59
2022/09/12 03:54:49;;;;;;;0.52;0.08;;;24.30;50.80;;;;;;5050910;28;20045;-59
2022/09/12 03:57:16;;;;;;;0.20;0.20;;;24.30;50.90;;;;;;5050541;28;20063;-59
2022/09/12 03:59:44;;;;;;;0.20;0.20;;;24.30;50.80;;;;;;5050973;28;20049;-60
2022/09/12 04:02:12;;;;;;;0.20;0.20;;;24.30;50.80;;;;;;5050267;28;20051;-59
2022/09/12 04:04:43;;;;;;;0.40;0.20;;;24.30;50.80;;;;;;5044987;28;20192;-60
2022/09/12 04:07:10;;;;;;;0.10;0.10;;;24.30;50.90;;;;;;5049601;28;20048;-59
2022/09/12 04:09:37;;;;;;;0.13;0.10;;;24.30;50.80;;;;;;5049886;28;20053;-59
2022/09/12 04:12:05;;;;;;;0.43;0.20;;;24.30;50.80;;;;;;5050629;28;20120;-59
2022/09/12 04:14:32;;;;;;;0.20;0.20;;;24.30;50.80;;;;;;5049357;28;20052;-59
2022/09/12 04:17:00;;;;;;;0.20;0.20;;;24.30;50.80;;;;;;5050588;28;20048;-59
2022/09/12 04:19:27;;;;;;;0.20;0.20;;;24.30;50.80;;;;;;5049996;28;20051;-59
2022/09/12 04:21:54;;;;;;;0.25;0.20;;;24.30;50.90;;;;;;5049914;28;20041;-59
2022/09/12 04:24:21;;;;;;;0.50;0.25;;;24.30;50.80;;;;;;5048685;28;20524;-59
2022/09/12 04:26:49;;;;;;;0.20;0.20;;;24.30;50.80;;;;;;5049782;28;20083;-59
2022/09/12 04:29:16;;;;;;;0.10;0.10;;;24.30;50.90;;;;;;5049864;28;20592;-59
2022/09/12 04:31:43;;;;;;;0.28;0.20;;;24.30;50.90;;;;;;5049160;28;20045;-60
2022/09/12 04:34:10;;;;;;;0.47;0.30;;;24.30;51.40;;;;;;5049151;28;20045;-59
2022/09/12 04:36:38;;;;;;;0.10;0.10;;;24.30;50.90;;;;;;5045431;28;20056;-59
2022/09/12 04:39:06;;;;;;;0.10;0.10;;;24.30;50.90;;;;;;5048977;28;20040;-59
2022/09/12 04:41:35;;;;;;;0.20;0.20;;;24.40;50.90;;;;;;5050017;28;20051;-59
2022/09/12 04:44:10;;;;;;;0.43;0.17;;;24.40;50.90;;;;;;5049525;28;20045;-59
2022/09/12 04:46:40;;;;;;;0.20;0.20;;;24.40;50.90;;;;;;5031334;28;20386;-59
2022/09/12 04:49:07;;;;;;;0.20;0.20;;;24.40;50.80;;;;;;5032415;28;20370;-60
2022/09/12 04:51:36;;;;;;;0.30;0.30;;;24.40;50.80;;;;;;5031639;28;20053;-59
2022/09/12 04:54:07;;;;;;;0.20;0.20;;;24.40;50.80;;;;;;5049449;28;20079;-59
2022/09/12 04:56:40;;;;;;;0.50;0.15;;;24.40;50.70;;;;;;5030904;28;20049;-59
2022/09/12 04:59:08;;;;;;;0.17;0.17;;;24.40;50.70;;;;;;5048670;28;20065;-59
2022/09/12 05:01:35;;;;;;;0.20;0.20;;;24.50;50.70;;;;;;5049105;28;20128;-60
2022/09/12 05:04:02;;;;;;;0.30;0.30;;;24.50;50.70;;;;;;5048433;28;20131;-59
2022/09/12 05:06:34;;;;;;;0.20;0.20;;;24.50;50.60;;;;;;5049301;28;20049;-59
2022/09/12 05:09:03;;;;;;;0.25;0.25;;;24.50;50.60;;;;;;5044353;28;20059;-60
2022/09/12 05:11:33;;;;;;;0.55;0.55;;;24.50;50.50;;;;;;5049065;28;20045;-59
2022/09/12 05:14:20;;;;;;;0.73;0.50;;;24.50;50.40;;;;;;5048451;28;20057;-58
2022/09/12 05:16:48;;;;;;;0.52;0.40;;;24.50;50.30;;;;;;5048691;28;20045;-59
2022/09/12 05:19:16;;;;;;;0.60;0.60;;;24.40;50.40;;;;;;5048816;28;20386;-60
2022/09/12 05:21:43;;;;;;;0.50;0.50;;;24.30;50.70;;;;;;5047059;28;20261;-60
2022/09/12 05:24:10;;;;;;;1.40;0.73;;;24.10;51.10;;;;;;5047998;28;20435;-60
2022/09/12 05:26:38;;;;;;;0.65;0.57;;;23.90;51.70;;;;;;5047716;28;20269;-60
2022/09/12 05:29:06;;;;;;;2.25;0.80;;;23.60;51.80;;;;;;5048474;28;20055;-59
2022/09/12 05:31:33;;;;;;;0.68;0.68;;;23.20;51.20;;;;;;5041959;28;20563;-59
2022/09/12 05:34:05;;;;;;;4.63;0.80;;;22.90;50.80;;;;;;5034701;28;20041;-59
2022/09/12 05:36:33;;;;;;;3.25;1.00;;;22.60;51.60;;;;;;5040365;28;20045;-60
2022/09/12 05:39:00;;;;;;;1.35;0.75;;;22.50;54.00;;;;;;5036211;28;20061;-60
2022/09/12 05:41:30;;;;;;;0.77;0.77;;;22.60;54.70;;;;;;5017465;28;20049;-60
2022/09/12 05:43:59;;;;;;;1.27;1.08;;;22.70;54.60;;;;;;5042534;28;20053;-60
2022/09/12 05:46:30;;;;;;;1.27;0.90;;;22.90;54.20;;;;;;5041347;28;20071;-60
2022/09/12 05:49:03;;;;;;;0.88;0.88;;;23.10;53.80;;;;;;5035900;28;20049;-60
2022/09/12 05:51:37;;;;;;;1.40;1.30;;;23.30;53.30;;;;;;5024297;28;20041;-60
2022/09/12 05:54:06;;;;;;;1.50;1.40;;;23.40;52.90;;;;;;5024559;28;20048;-60
2022/09/12 05:56:38;;;;;;;1.53;1.43;;;23.60;52.50;;;;;;5026815;28;20041;-61
2022/09/12 05:59:13;;;;;;;2.22;1.40;;;23.70;52.40;;;;;;5018125;28;20306;-61
2022/09/12 06:01:41;;;;;;;2.17;1.63;;;23.80;52.40;;;;;;5040187;28;20067;-61
2022/09/12 06:04:09;;;;;;;10.50;1.52;;;23.90;52.20;;;;;;5041683;28;20890;-61
2022/09/12 06:06:40;;;;;;;3.05;1.98;;;24.00;52.10;;;;;;5034512;28;20048;-61
2022/09/12 06:09:08;;;;;;;3.75;2.63;;;24.10;51.90;;;;;;5036069;28;20053;-61
2022/09/12 06:11:39;;;;;;;2.38;2.10;;;24.20;51.70;;;;;;5033805;28;20116;-61
2022/09/12 06:14:08;;;;;;;4.43;2.35;;;24.30;51.50;;;;;;5033421;28;20053;-61
2022/09/12 06:16:36;;;;;;;2.55;2.00;;;24.30;51.30;;;;;;5020627;28;20080;-59
2022/09/12 06:19:07;;;;;;;2.33;2.13;;;24.40;51.30;;;;;;5039949;28;20049;-62
2022/09/12 06:21:34;;;;;;;2.25;2.05;;;24.50;51.20;;;;;;5040151;28;20049;-61
2022/09/12 06:24:01;;;;;;;5.10;2.33;;;24.50;51.00;;;;;;5040151;28;20064;-61
2022/09/12 06:26:29;;;;;;;2.55;2.35;;;24.60;50.90;;;;;;5038611;28;20041;-64
2022/09/12 06:28:58;;;;;;;4.00;2.15;;;24.70;50.60;;;;;;5041829;28;20049;-66
2022/09/12 06:31:29;;;;;;;3.67;2.00;;;24.70;50.30;;;;;;5039741;28;20045;-63
2022/09/12 06:34:00;;;;;;;2.20;2.10;;;24.70;49.90;;;;;;5037417;28;20497;-66
2022/09/12 06:36:31;;;;;;;2.35;2.15;;;24.70;50.10;;;;;;5034796;28;20567;-63
2022/09/12 06:39:03;;;;;;;3.13;2.38;;;24.80;49.80;;;;;;5038425;28;20048;-62
2022/09/12 06:41:31;;;;;;;5.22;1.92;;;24.80;49.70;;;;;;5019538;28;20135;-63
2022/09/12 06:43:59;;;;;;;3.65;2.10;;;24.90;49.80;;;;;;5040788;28;20501;-62
2022/09/12 06:46:27;;;;;;;3.22;2.40;;;24.90;49.40;;;;;;5027738;28;20504;-61
2022/09/12 06:48:59;;;;;;;3.20;2.38;;;24.90;49.30;;;;;;5031135;28;20045;-62
2022/09/12 06:51:27;;;;;;;4.45;1.75;;;24.90;49.30;;;;;;5038287;28;20041;-61
2022/09/12 06:53:56;;;;;;;5.72;2.33;;;25.00;49.40;;;;;;5043779;28;20052;-63
2022/09/12 06:56:26;;;;;;;3.40;2.10;;;25.00;49.40;;;;;;5045060;28;20787;-60
2022/09/12 06:58:55;;;;;;;2.20;2.00;;;25.00;49.30;;;;;;5043822;28;20413;-61
2022/09/12 07:01:26;;;;;;;2.20;1.98;;;25.10;49.30;;;;;;5039438;28;20052;-61
2022/09/12 07:03:57;;;;;;;2.70;1.75;;;25.10;49.30;;;;;;5029536;28;20398;-62
2022/09/12 07:06:30;;;;;;;2.72;2.28;;;25.10;49.30;;;;;;5036294;28;20069;-60
2022/09/12 07:09:00;;;;;;;3.47;2.58;;;25.10;49.20;;;;;;5021159;28;20053;-60
2022/09/12 07:11:30;;;;;;;3.53;2.22;;;25.10;49.10;;;;;;5044306;28;20156;-59
2022/09/12 07:13:59;;;;;;;4.20;2.55;;;25.10;49.00;;;;;;5042275;28;20045;-59
2022/09/12 07:16:27;;;;;;;3.08;2.00;;;25.20;49.10;;;;;;5042039;28;20049;-60
2022/09/12 07:18:59;;;;;;;2.25;2.05;;;25.20;49.10;;;;;;5037422;28;20044;-61
2022/09/12 07:21:28;;;;;;;4.65;2.10;;;25.30;49.10;;;;;;5037810;28;20071;-61
2022/09/12 07:23:58;;;;;;;3.25;2.25;;;25.20;49.00;;;;;;5022617;28;20055;-61
2022/09/12 07:26:27;;;;;;;1.90;1.80;;;25.30;49.10;;;;;;5039730;28;20120;-60
2022/09/12 07:28:56;;;;;;;4.13;2.00;;;25.30;49.00;;;;;;5038592;28;21504;-61
2022/09/12 07:31:44;;;;;;;3.97;2.03;;;25.30;48.90;;;;;;5039085;28;20510;-62
2022/09/12 07:34:11;;;;;;;3.45;2.15;;;25.40;48.90;;;;;;5037793;28;20045;-64
2022/09/12 07:36:38;;;;;;;5.20;2.22;;;25.40;49.00;;;;;;5039362;28;20131;-63
2022/09/12 07:39:07;;;;;;;4.43;2.28;;;25.40;49.00;;;;;;5039565;28;20057;-62
2022/09/12 07:41:34;;;;;;;2.35;1.98;;;25.40;48.80;;;;;;5035642;28;20493;-62
2022/09/12 07:44:02;;;;;;;2.63;2.08;;;25.50;49.00;;;;;;5042368;28;20083;-63
2022/09/12 07:46:30;;;;;;;2.60;2.40;;;25.50;49.20;;;;;;5037090;28;20488;-62
2022/09/12 07:48:59;;;;;;;1.65;1.55;;;25.50;49.00;;;;;;5037854;28;20063;-63
2022/09/12 07:51:29;;;;;;;1.98;1.65;;;25.60;48.80;;;;;;5038474;28;20045;-64
2022/09/12 07:53:57;;;;;;;3.05;1.85;;;25.60;48.50;;;;;;5039432;28;20049;-62
2022/09/12 07:56:26;;;;;;;3.50;2.00;;;25.60;48.40;;;;;;5040952;28;20056;-63
2022/09/12 07:58:57;;;;;;;3.42;1.75;;;25.70;48.30;;;;;;5018001;28;20041;-62
2022/09/12 08:01:25;;;;;;;2.58;1.85;;;25.70;48.20;;;;;;5042432;28;20051;-62
2022/09/12 08:03:56;;;;;;;4.15;1.70;;;25.70;48.00;;;;;;5043455;28;20057;-62
2022/09/12 08:06:24;;;;;;;1.70;1.60;;;25.70;47.90;;;;;;5044309;28;20069;-64
2022/09/12 08:08:53;;;;;;;2.17;1.90;;;25.70;47.60;;;;;;5045858;28;20059;-62
2022/09/12 08:11:21;;;;;;;1.85;1.73;;;25.80;47.60;;;;;;5026365;28;20052;-63
2022/09/12 08:13:50;;;;;;;2.63;1.90;;;25.80;47.60;;;;;;5044260;28;20438;-63
2022/09/12 08:16:23;;;;;;;2.10;1.90;;;25.80;47.70;;;;;;5042894;28;20044;-63
2022/09/12 08:18:50;;;;;;;4.43;2.47;;;25.80;47.60;;;;;;5038762;28;20056;-63
2022/09/12 08:21:20;;;;;;;1.35;1.25;;;25.90;47.50;;;;;;5036572;28;20081;-62
2022/09/12 08:23:51;;;;;;;;;;;25.90;47.50;;;;;;5038338;28;20052;-63
2022/09/12 08:26:18;;;;;;;1.80;1.70;;;25.90;47.30;;;;;;5040311;28;20026;-62
2022/09/12 08:28:46;;;;;;;1.70;1.60;;;25.90;47.20;;;;;;5034295;28;20157;-62
2022/09/12 08:31:15;;;;;;;4.95;2.45;;;25.90;46.90;;;;;;5039158;28;20446;-62
2022/09/12 08:33:45;;;;;;;5.55;2.58;;;25.90;46.80;;;;;;5043959;28;20489;-61
2022/09/12 08:36:21;;;;;;;2.33;1.38;;;25.90;46.80;;;;;;5038221;28;20472;-62
2022/09/12 08:38:53;;;;;;;1.83;1.73;;;25.90;46.90;;;;;;5041951;28;20112;-62
2022/09/12 08:41:39;;;;;;;5.53;1.65;;;25.90;46.90;;;;;;5040742;28;20041;-62
2022/09/12 08:44:43;;;;;;;6.65;2.00;;;25.90;46.80;;;;;;5035826;28;20144;-62
2022/09/12 08:47:22;;;;;;;2.33;1.95;;;25.90;46.70;;;;;;5032345;28;20191;-61
2022/09/12 08:50:14;;;;;;;2.40;2.20;;;25.90;46.60;;;;;;5032512;28;20049;-63
2022/09/12 08:53:04;;;;;;;2.30;1.90;;;26.00;46.70;;;;;;5037421;28;20053;-61
2022/09/12 08:55:43;;;;;;;2.25;1.90;;;26.00;47.00;;;;;;5034355;28;20049;-63
2022/09/12 08:58:22;;;;;;;1.80;1.70;;;26.00;46.40;;;;;;5039544;28;20119;-62
2022/09/12 09:00:59;;;;;;;1.70;1.60;;;26.00;46.30;;;;;;5039344;28;20045;-61
2022/09/12 09:04:06;;;;;;;1.95;1.70;;;26.00;46.20;;;;;;5041343;28;20056;-62
2022/09/12 09:07:13;;;;;;;1.80;1.70;;;26.10;46.30;;;;;;5030881;28;20229;-59
2022/09/12 09:10:14;;;;;;;2.35;1.50;;;26.10;46.30;;;;;;5022536;28;20520;-60
2022/09/12 09:14:46;;;;;;;1.77;1.50;;;26.10;46.30;;;;;;5040946;28;20053;-60
2022/09/12 09:16:16;;;;;;;1.80;1.70;;;26.10;46.20;;;;;;5039797;28;20111;-62
2022/09/12 09:18:45;;;;;;;3.83;1.75;;;26.20;46.30;;;;;;5043258;28;20052;-61
2022/09/12 09:21:45;;;;;;;1.83;1.55;;;26.20;46.10;;;;;;5044711;28;20044;-60
2022/09/12 09:24:17;;;;;;;1.60;1.50;;;26.30;46.00;;;;;;5029634;28;20136;-60
2022/09/12 09:26:59;;;;;;;2.17;1.52;;;26.30;46.00;;;;;;5034062;28;20048;-60
2022/09/12 09:29:38;;;;;;;6.93;1.73;;;26.30;46.00;;;;;;5037243;28;20041;-60
2022/09/12 09:32:17;;;;;;;1.55;1.45;;;26.40;46.00;;;;;;5043201;28;20055;-58
2022/09/12 09:34:45;;;;;;;2.30;1.80;;;26.40;46.00;;;;;;5042322;28;20052;-62
2022/09/12 09:37:39;;;;;;;2.20;1.98;;;26.50;46.10;;;;;;5039926;28;20048;-63
2022/09/12 09:40:31;;;;;;;3.50;1.50;;;26.50;45.90;;;;;;5046916;28;20120;-62
2022/09/12 09:43:21;;;;;;;2.88;1.75;;;26.50;45.60;;;;;;5038773;28;20495;-62
2022/09/12 09:45:51;;;;;;;1.42;1.33;;;26.50;45.30;;;;;;5037546;28;20072;-62
2022/09/12 09:48:35;;;;;;;1.63;1.50;;;26.50;45.20;;;;;;5034826;28;20055;-61
2022/09/12 09:51:05;;;;;;;1.60;1.50;;;26.60;45.10;;;;;;5037112;28;20110;-61
2022/09/12 09:53:55;;;;;;;1.85;1.58;;;26.60;45.10;;;;;;5037620;28;20045;-61
2022/09/12 09:56:38;;;;;;;4.50;1.50;;;26.60;45.00;;;;;;5036112;28;20045;-60
2022/09/12 09:59:11;;;;;;;3.38;1.80;;;26.60;44.80;;;;;;5036488;28;20101;-61
2022/09/12 10:01:50;;;;;;;5.18;1.55;;;26.60;44.80;;;;;;5021274;28;20081;-60
2022/09/12 10:04:22;;;;;;;3.22;2.05;;;26.60;44.90;;;;;;5036094;28;20056;-60
2022/09/12 10:06:53;;;;;;;2.15;1.60;;;26.60;44.60;;;;;;5030986;28;20472;-61
2022/09/12 10:09:23;;;;;;;3.83;1.60;;;26.60;44.60;;;;;;5038082;28;20140;-59
2022/09/12 10:11:51;;;;;;;4.10;1.45;;;26.60;44.70;;;;;;5037931;28;20420;-59
2022/09/12 10:14:35;;;;;;;1.30;1.20;;;26.70;44.50;;;;;;5017404;28;20041;-61
2022/09/12 10:17:28;;;;;;;2.17;1.67;;;26.70;44.40;;;;;;5037449;28;20049;-61
2022/09/12 10:20:00;;;;;;;1.52;1.40;;;26.70;44.30;;;;;;5033357;28;20041;-60
2022/09/12 10:22:48;;;;;;;1.80;1.70;;;26.70;44.30;;;;;;5041789;28;20054;-61
2022/09/12 10:25:17;;;;;;;1.52;1.40;;;26.70;44.10;;;;;;5038093;28;20087;-61
2022/09/12 10:27:59;;;;;;;2.80;1.23;;;26.70;44.00;;;;;;5044328;28;21758;-61
2022/09/12 10:30:27;;;;;;;2.35;1.60;;;26.70;44.00;;;;;;5041953;28;20505;-61
2022/09/12 10:33:05;;;;;;;1.40;1.30;;;26.70;44.00;;;;;;5036026;28;20044;-61
2022/09/12 10:35:44;;;;;;;3.80;1.30;;;26.70;43.90;;;;;;5035910;28;20313;-61
2022/09/12 10:38:24;;;;;;;1.70;1.07;;;26.70;43.80;;;;;;5039270;28;20139;-61
2022/09/12 10:40:58;;;;;;;1.27;1.00;;;26.70;43.60;;;;;;5028655;28;20733;-61
2022/09/12 10:43:38;;;;;;;3.15;1.33;;;26.80;43.70;;;;;;5034451;28;20068;-61
2022/09/12 10:46:28;;;;;;;1.73;1.35;;;26.80;43.60;;;;;;5024669;28;20063;-61
2022/09/12 10:49:37;;;;;;;1.17;1.00;;;26.80;43.50;;;;;;5042707;28;20051;-61
2022/09/12 10:52:22;;;;;;;1.25;1.00;;;26.80;43.30;;;;;;5040786;28;20056;-60
2022/09/12 10:54:50;;;;;;;1.20;1.10;;;26.80;43.50;;;;;;5033902;28;20163;-61
2022/09/12 10:57:47;;;;;;;6.82;1.38;;;26.80;43.50;;;;;;5037322;28;20060;-61
2022/09/12 11:00:18;;;;;;;1.60;1.20;;;26.90;43.40;;;;;;5024538;28;20127;-61
2022/09/12 11:02:54;;;;;;;1.92;1.48;;;26.80;43.30;;;;;;5046439;28;20404;-62
2022/09/12 11:05:40;;;;;;;1.98;1.73;;;26.90;43.00;;;;;;5040626;28;20143;-61
2022/09/12 11:08:31;;;;;;;5.00;1.00;;;26.90;43.00;;;;;;5029987;28;20055;-60
2022/09/12 11:11:25;;;;;;;2.50;1.45;;;26.90;43.10;;;;;;5034566;28;20557;-62
2022/09/12 11:14:26;;;;;;;3.83;1.00;;;26.90;43.00;;;;;;5041101;28;20118;-60
2022/09/12 11:17:18;;;;;;;2.38;1.33;;;26.90;42.90;;;;;;5042636;28;20079;-59
2022/09/12 11:20:20;;;;;;;1.45;1.35;;;26.90;43.00;;;;;;5027913;28;20095;-59
2022/09/12 11:23:23;;;;;;;1.20;1.10;;;27.00;43.10;;;;;;5044268;28;20059;-61
2022/09/12 11:26:30;;;;;;;1.52;1.25;;;27.00;43.10;;;;;;5047482;28;20055;-62
2022/09/12 11:29:19;;;;;;;3.97;1.08;;;27.00;43.00;;;;;;5043784;28;20045;-61
2022/09/12 11:32:15;;;;;;;4.55;1.27;;;27.00;43.00;;;;;;5039462;28;20475;-62
2022/09/12 11:35:09;;;;;;;2.78;1.40;;;27.10;42.90;;;;;;5025484;28;20045;-59
2022/09/12 11:38:02;;;;;;;;;;;27.10;42.70;;;;;;5042490;28;20045;-60
2022/09/12 11:40:54;;;;;;;1.42;1.13;;;27.10;42.70;;;;;;5043725;28;20005;-61
2022/09/12 11:43:42;;;;;;;3.50;1.10;;;27.10;42.80;;;;;;5039439;28;20052;-60
2022/09/12 11:46:22;;;;;;;2.88;1.30;;;27.10;42.80;;;;;;5041103;28;20049;-61
2022/09/12 11:48:54;;;;;;;;;;;27.10;42.90;;;;;;5042181;28;20835;-62
2022/09/12 11:51:40;;;;;;;1.38;1.27;;;27.10;42.90;;;;;;5048877;28;20108;-61
2022/09/12 11:54:23;;;;;;;1.30;1.10;;;26.70;38.50;;;;;;5049813;28;20057;-62
2022/09/12 11:57:11;;;;;;;2.08;0.80;;;25.80;39.80;;;;;;5041640;28;20490;-61
2022/09/12 12:00:09;;;;;;;1.10;1.00;;;25.30;43.60;;;;;;5043300;28;20065;-63
2022/09/12 12:03:02;;;;;;;2.67;1.52;;;25.20;44.90;;;;;;5025173;28;20789;-63
2022/09/12 12:06:09;;;;;;;1.13;1.02;;;25.40;45.10;;;;;;5042051;28;20041;-61
2022/09/12 12:08:42;;;;;;;3.25;1.48;;;25.60;44.70;;;;;;5039711;28;20045;-62
2022/09/12 12:11:25;;;;;;;1.65;1.02;;;25.80;44.30;;;;;;5017856;28;20106;-63
2022/09/12 12:13:57;;;;;;;3.42;1.50;;;26.00;43.90;;;;;;5040931;28;20041;-62
2022/09/12 12:16:32;;;;;;;4.03;1.70;;;26.20;43.70;;;;;;5041287;28;20135;-61
2022/09/12 12:19:05;;;;;;;1.30;1.20;;;26.30;43.20;;;;;;5038636;28;20049;-62
2022/09/12 12:21:45;;;;;;;1.10;1.05;;;26.50;42.90;;;;;;5042586;28;20041;-61
2022/09/12 12:24:22;;;;;;;2.70;0.90;;;26.60;42.70;;;;;;5040565;28;20058;-60
2022/09/12 12:26:59;;;;;;;1.27;0.85;;;26.60;42.40;;;;;;5038034;28;20057;-62
2022/09/12 12:29:40;;;;;;;1.60;1.10;;;26.70;42.20;;;;;;5039258;28;20056;-62
2022/09/12 12:32:22;;;;;;;1.58;1.25;;;26.80;42.00;;;;;;5039337;28;20416;-62
2022/09/12 12:34:49;;;;;;;3.63;1.45;;;26.80;42.10;;;;;;5036915;28;20040;-62
2022/09/12 12:37:47;;;;;;;2.05;1.00;;;26.80;41.80;;;;;;5041903;28;20048;-63
2022/09/12 12:40:23;;;;;;;1.92;0.95;;;26.90;41.40;;;;;;5028084;28;20041;-63
2022/09/12 12:43:00;;;;;;;1.33;1.23;;;26.90;41.20;;;;;;5041665;28;20049;-63
2022/09/12 12:45:47;;;;;;;1.60;0.88;;;26.90;40.70;;;;;;5041603;28;20041;-62
2022/09/12 12:48:17;;;;;;;1.17;1.08;;;27.00;40.70;;;;;;5048680;28;20057;-62
2022/09/12 12:50:45;;;;;;;2.67;0.90;;;27.00;40.70;;;;;;5045245;28;20251;-64
2022/09/12 12:53:20;;;;;;;2.08;0.77;;;27.00;40.70;;;;;;5043233;28;20037;-63
2022/09/12 12:55:51;;;;;;;1.02;1.00;;;27.10;40.60;;;;;;5037841;28;20045;-64
2022/09/12 12:58:41;;;;;;;1.42;1.20;;;27.10;40.60;;;;;;5024577;28;20408;-65
2022/09/12 13:01:11;;;;;;;;;;;27.10;40.70;;;;;;5039066;28;20052;-64
2022/09/12 13:03:55;;;;;;;1.50;1.30;;;27.10;40.10;;;;;;5048471;28;20007;-62
2022/09/12 13:06:38;;;;;;;1.17;1.00;;;27.20;40.30;;;;;;5042464;28;20047;-62
2022/09/12 13:09:22;;;;;;;1.63;1.52;;;27.20;40.30;;;;;;5046635;28;20056;-62
2022/09/12 13:12:00;;;;;;;1.85;1.10;;;27.20;40.30;;;;;;5044822;28;20048;-63
2022/09/12 13:14:47;;;;;;;5.05;1.20;;;27.20;40.40;;;;;;5045131;28;20493;-62
2022/09/12 13:17:24;;;;;;;1.10;1.00;;;27.20;40.60;;;;;;5039695;28;20449;-62
2022/09/12 13:20:02;;;;;;;1.35;1.13;;;27.30;40.80;;;;;;5044421;28;20560;-63
2022/09/12 13:22:51;;;;;;;1.40;1.05;;;27.30;41.10;;;;;;5041148;28;20097;-65
2022/09/12 13:25:36;;;;;;;3.10;1.13;;;27.30;41.20;;;;;;5038109;28;20090;-63
2022/09/12 13:28:17;;;;;;;4.03;1.25;;;27.30;41.20;;;;;;5042655;28;20389;-63
2022/09/12 13:31:02;;;;;;;4.20;1.63;;;27.30;41.20;;;;;;5041301;28;20053;-63
2022/09/12 13:33:39;;;;;;;1.90;1.40;;;27.30;41.70;;;;;;5041159;28;20049;-62
2022/09/12 13:36:46;;;;;;;3.25;1.23;;;27.30;41.30;;;;;;5042298;28;20080;-63